»·PEaware :: N172TT KSBP-KMIT

N172TT :: KSBP-KMIT

FLIGHT INFORMATION

Flight Status: Arrived
Operator: Privately registered:
United States
More flights under this callsign
Pilot: Thomas T. (19955)
Aircraft: CESSNA 172 SKYHAWK
(C172)
More flights by this aircraft type
Origin: KSBP San Luis Co Regl
United States
Destination: KMIT Shafter-Minter
United States
More flights between these airports :: More routes between these airports
Route: EHF
File this flight plan on PilotEdge
Remarks:
Altitude:
(Current/Filed)
6,000ft
Speed:
(Current/Filed)
0kts
Departed: 03-Aug-18 08:12 AM
Arrived: 03-Aug-18 08:56 AM
Distance/Time
Traveled:
73nm/0:44
Distance/Time
To Go:
Arrived

Flight Plot

Page will automatically refresh every two minutes.

Flight plan parsing failed; only flown route is shown


Map Options




Map Legend


Flown Route
Filed Route
Departure Airport
Arrival Airport
Navaid (VOR, NDB)
Fix

Horizontal Profiles

Position Reports

Time Latitude Longitude Heading Altitude Ground
Speed
03-Aug-18 07:58 35.238040 -120.639998 217 191ft 0kts
03-Aug-18 07:59 35.238040 -120.639998 217 191ft 0kts
03-Aug-18 08:00 35.238040 -120.639998 217 191ft 0kts
03-Aug-18 08:01 35.238040 -120.639998 217 191ft 0kts
03-Aug-18 08:02 35.238040 -120.639998 217 191ft 0kts
03-Aug-18 08:03 35.238040 -120.639998 217 191ft 0kts
03-Aug-18 08:04 35.238040 -120.639998 217 191ft 0kts
03-Aug-18 08:05 35.238039 -120.639999 211 191ft 0kts
03-Aug-18 08:06 35.236317 -120.637293 124 201ft 11kts
03-Aug-18 08:07 35.234404 -120.633924 123 211ft 14kts
03-Aug-18 08:08 35.233341 -120.632094 152 213ft 2kts
03-Aug-18 08:09 35.233233 -120.632114 216 213ft 0kts
03-Aug-18 08:10 35.233232 -120.632115 216 213ft 0kts
03-Aug-18 08:11 35.233232 -120.632115 216 213ft 0kts
03-Aug-18 08:12 35.233232 -120.632115 216 213ft 0kts
03-Aug-18 08:13 35.237729 -120.640801 312 390ft 73kts
03-Aug-18 08:14 35.253418 -120.661465 311 1250ft 93kts
03-Aug-18 08:15 35.268419 -120.686170 300 2271ft 89kts
03-Aug-18 08:16 35.284225 -120.702389 27 3101ft 93kts
03-Aug-18 08:17 35.302304 -120.678519 49 3832ft 93kts
03-Aug-18 08:18 35.316669 -120.651989 53 4542ft 95kts
03-Aug-18 08:19 35.325464 -120.617072 77 4782ft 115kts
03-Aug-18 08:20 35.324654 -120.576659 107 4830ft 121kts
03-Aug-18 08:21 35.314012 -120.537285 107 4875ft 123kts
03-Aug-18 08:22 35.303230 -120.497405 107 4874ft 123kts
03-Aug-18 08:23 35.292427 -120.457432 107 4874ft 123kts
03-Aug-18 08:24 35.281706 -120.417610 106 4874ft 123kts
03-Aug-18 08:25 35.272010 -120.377146 105 4873ft 123kts
03-Aug-18 08:26 35.263378 -120.338017 101 4873ft 123kts
03-Aug-18 08:27 35.257159 -120.296704 99 4873ft 123kts
03-Aug-18 08:28 35.251632 -120.255122 99 4873ft 123kts
03-Aug-18 08:29 35.247703 -120.213954 91 4872ft 120kts
03-Aug-18 08:30 35.251524 -120.173638 79 4873ft 120kts
03-Aug-18 08:31 35.257823 -120.133378 78 4873ft 120kts
03-Aug-18 08:32 35.264081 -120.093394 78 4872ft 120kts
03-Aug-18 08:33 35.270414 -120.052947 78 4872ft 120kts
03-Aug-18 08:34 35.276735 -120.012589 78 4872ft 120kts
03-Aug-18 08:35 35.283001 -119.972600 78 4871ft 120kts
03-Aug-18 08:36 35.289320 -119.932299 78 4871ft 120kts
03-Aug-18 08:37 35.295644 -119.891993 78 4871ft 120kts
03-Aug-18 08:38 35.301946 -119.851853 78 4870ft 120kts
03-Aug-18 08:39 35.309966 -119.812488 72 4871ft 120kts
03-Aug-18 08:40 35.319678 -119.773386 72 4870ft 120kts
03-Aug-18 08:41 35.329556 -119.734309 69 4870ft 120kts
03-Aug-18 08:42 35.341499 -119.695968 68 4870ft 120kts
03-Aug-18 08:43 35.352750 -119.657386 70 4869ft 120kts
03-Aug-18 08:44 35.363144 -119.618229 77 4831ft 121kts
03-Aug-18 08:45 35.373628 -119.579160 70 4835ft 120kts
03-Aug-18 08:46 35.384516 -119.540340 70 4759ft 127kts
03-Aug-18 08:47 35.396894 -119.496060 70 3906ft 137kts
03-Aug-18 08:48 35.409110 -119.452341 70 3213ft 137kts
03-Aug-18 08:49 35.421370 -119.408458 70 2512ft 135kts
03-Aug-18 08:50 35.433585 -119.364741 70 1812ft 135kts
03-Aug-18 08:51 35.445057 -119.323713 71 1420ft 125kts
03-Aug-18 08:52 35.455877 -119.285127 70 1416ft 118kts
03-Aug-18 08:53 35.466820 -119.247357 57 1414ft 117kts
03-Aug-18 08:54 35.475436 -119.211851 88 1343ft 97kts
03-Aug-18 08:55 35.480915 -119.188166 12 1105ft 68kts
03-Aug-18 08:56 35.499414 -119.186007 358 504ft 64kts
03-Aug-18 08:57 35.507679 -119.185214 14 424ft 5kts
03-Aug-18 08:58 35.507861 -119.184890 92 424ft 0kts

Navigation Log

Ident Type
Flight plan parsing failed, navigation log unavailable